Time;durP1;ratioP1;P1;durP2;ratioP2;P2;SDS_P1;SDS_P2;PMS_P1;PMS_P2;Temp;Humidity;BMP_temperature;BMP_pressure;BME280_temperature;BME280_humidity;BME280_pressure;Samples;Min_cycle;Max_cycle;Signal;HPM_P1;HPM_P2
2022/09/11 00:01:21;;;;;;;1.10;1.00;;;17.40;96.20;;;17.77;64.43;98739.78;4980109;28;107791;-77
2022/09/11 00:03:48;;;;;;;3.10;1.60;;;17.40;96.20;;;17.76;64.40;98725.00;4988361;28;107532;-80
2022/09/11 00:06:21;;;;;;;2.60;1.10;;;17.40;96.50;;;17.77;64.33;98731.41;4980018;28;124095;-76
2022/09/11 00:08:56;;;;;;;1.90;1.17;;;17.30;96.20;;;17.75;64.33;98722.56;4988301;28;123843;-79
2022/09/11 00:11:22;;;;;;;4.50;1.20;;;17.40;96.30;;;17.74;64.45;98718.16;4986331;28;107642;-79
2022/09/11 00:13:53;;;;;;;2.23;1.10;;;17.40;96.30;;;17.73;64.32;98725.72;4976342;28;107419;-78
2022/09/11 00:16:21;;;;;;;2.00;1.40;;;17.40;96.30;;;17.73;64.34;98719.31;4991420;28;124088;-78
2022/09/11 00:18:49;;;;;;;2.57;1.30;;;17.40;96.30;;;17.75;64.60;98722.56;4985535;28;123826;-78
2022/09/11 00:21:17;;;;;;;1.80;1.30;;;17.40;96.30;;;17.76;64.58;98718.59;4972592;28;107692;-77
2022/09/11 00:23:44;;;;;;;2.10;1.20;;;17.40;96.40;;;17.77;64.36;98709.03;4985692;28;107218;-78
2022/09/11 00:26:11;;;;;;;6.03;1.70;;;17.40;96.40;;;17.78;64.27;98710.66;4989705;28;123926;-77
2022/09/11 00:28:37;;;;;;;1.97;1.20;;;17.40;96.40;;;17.77;64.30;98715.44;4987668;28;123619;-77
2022/09/11 00:31:16;;;;;;;2.30;1.10;;;17.40;96.40;;;17.79;64.18;98709.53;4987701;28;107121;-77
2022/09/11 00:33:43;;;;;;;1.53;1.30;;;17.40;96.40;;;17.77;64.25;98709.03;4980025;28;107251;-78
2022/09/11 00:36:17;;;;;;;3.07;1.60;;;17.40;96.40;;;17.80;64.29;98711.13;5000632;28;122985;-76
2022/09/11 00:38:45;;;;;;;3.83;1.30;;;17.40;96.40;;;17.81;64.25;98709.97;4990417;28;124430;-76
2022/09/11 00:41:20;;;;;;;3.17;1.20;;;17.40;96.40;;;17.81;64.10;98708.00;4985504;28;107665;-76
2022/09/11 00:44:04;;;;;;;1.60;1.30;;;17.40;96.30;;;17.81;64.28;98708.00;4993007;28;107363;-78
2022/09/11 00:46:52;;;;;;;4.60;1.03;;;17.40;96.30;;;17.82;64.10;98711.59;4984581;28;124157;-76
2022/09/11 00:49:33;;;;;;;4.40;1.30;;;17.40;96.30;;;17.81;64.14;98704.38;4978389;28;124454;-77
2022/09/11 00:52:22;;;;;;;1.50;1.13;;;17.40;96.30;;;17.81;63.89;98709.97;4991057;28;107372;-77
2022/09/11 00:54:55;;;;;;;2.17;1.10;;;17.40;96.20;;;17.79;64.13;98712.31;4987950;28;107402;-78
2022/09/11 00:57:26;;;;;;;1.20;1.10;;;17.40;96.20;;;17.78;64.29;98699.47;4982185;28;123270;-76
2022/09/11 00:59:54;;;;;;;1.10;0.97;;;17.40;96.20;;;17.79;64.03;98703.94;4988184;28;123595;-77
2022/09/11 01:02:25;;;;;;;2.47;1.37;;;17.40;96.20;;;17.78;64.28;98711.47;4986414;28;107558;-77
2022/09/11 01:04:53;;;;;;;2.13;1.30;;;17.40;96.30;;;17.78;64.14;98705.06;4972855;28;107279;-76
2022/09/11 01:07:22;;;;;;;3.50;1.10;;;17.40;96.30;;;17.77;64.18;98707.06;4986805;28;123887;-77
2022/09/11 01:09:50;;;;;;;2.20;1.10;;;17.40;96.30;;;17.76;64.07;98699.84;4983450;28;124228;-76
2022/09/11 01:12:35;;;;;;;1.30;1.20;;;17.40;96.30;;;17.77;64.28;98703.47;4970913;28;106830;-77
2022/09/11 01:15:10;;;;;;;3.40;1.10;;;17.40;96.30;;;17.76;64.31;98696.22;4999815;28;107255;-78
2022/09/11 01:18:22;;;;;;;3.53;1.27;;;17.40;96.40;;;17.73;64.31;98700.59;4976913;28;124777;-77
2022/09/11 01:20:58;;;;;;;1.90;1.00;;;17.40;96.40;;;17.72;64.40;98703.72;4981426;28;123888;-80
2022/09/11 01:23:53;;;;;;;4.33;1.60;;;17.40;96.40;;;17.70;64.38;98709.66;4986368;28;107328;-76
2022/09/11 01:26:33;;;;;;;5.57;1.30;;;17.40;96.40;;;17.72;64.41;98706.53;4982621;28;107433;-76
2022/09/11 01:29:19;;;;;;;1.27;1.13;;;17.40;96.40;;;17.73;64.28;98703.38;4983054;28;124428;-77
2022/09/11 01:32:17;;;;;;;1.77;1.30;;;17.40;96.50;;;17.72;64.41;98712.13;4975562;28;123572;-77
2022/09/11 01:35:12;;;;;;;1.90;1.00;;;17.40;96.50;;;17.71;64.61;98716.09;4976206;28;107579;-79
2022/09/11 01:37:54;;;;;;;1.60;1.07;;;17.40;96.60;;;17.72;64.70;98712.13;4987017;28;107061;-76
2022/09/11 01:40:27;;;;;;;1.10;1.00;;;17.40;96.60;;;17.73;64.77;98708.97;4982869;28;124072;-77
2022/09/11 01:43:05;;;;;;;2.37;1.23;;;17.40;96.60;;;17.74;64.89;98710.59;4972793;28;123813;-76
2022/09/11 01:45:36;;;;;;;1.87;1.10;;;17.30;96.60;;;17.72;64.76;98712.91;4965521;28;106531;-79
2022/09/11 01:48:04;;;;;;;3.43;1.47;;;17.40;96.70;;;17.73;64.97;98716.50;4985363;28;107244;-76
2022/09/11 01:50:31;;;;;;;1.80;1.20;;;17.40;96.80;;;17.73;64.93;98702.53;4972405;28;124575;-76
2022/09/11 01:53:02;;;;;;;1.50;1.10;;;17.30;96.80;;;17.71;64.96;98705.72;4971252;28;123581;-76
2022/09/11 01:55:40;;;;;;;2.27;1.40;;;17.30;96.80;;;17.71;64.82;98704.91;5002286;28;107456;-78
2022/09/11 01:58:14;;;;;;;2.67;1.33;;;17.30;96.80;;;17.69;64.94;98708.06;4989248;28;107363;-76
2022/09/11 02:00:45;;;;;;;2.40;1.20;;;17.30;96.70;;;17.70;64.87;98714.44;4974099;28;123986;-77
2022/09/11 02:03:35;;;;;;;3.03;1.60;;;17.30;96.70;;;17.70;64.70;98703.28;4994693;28;122675;-76
2022/09/11 02:06:12;;;;;;;1.87;1.37;;;17.30;96.80;;;17.70;64.79;98711.66;4981508;28;108268;-75
2022/09/11 02:08:51;;;;;;;3.83;1.40;;;18.60;97.30;;;17.68;64.79;98714.84;4986007;28;107157;-75
2022/09/11 02:11:20;;;;;;;1.30;1.10;;;17.30;96.80;;;17.67;64.83;98719.59;4972955;28;124094;-77
2022/09/11 02:14:12;;;;;;;1.60;1.10;;;17.30;96.80;;;17.65;65.15;98719.16;4984080;28;123563;-75
2022/09/11 02:17:18;;;;;;;2.17;1.23;;;17.30;96.80;;;17.64;64.86;98727.88;4982713;28;107489;-76
2022/09/11 02:19:44;;;;;;;5.13;1.63;;;17.30;96.80;;;17.63;64.89;98727.09;4972978;28;107339;-76
2022/09/11 02:22:11;;;;;;;2.80;1.30;;;17.30;96.80;;;17.64;65.09;98723.09;4974120;28;124362;-76
2022/09/11 02:24:38;;;;;;;2.43;1.00;;;17.20;96.80;;;17.67;65.13;98725.16;4988777;28;123567;-76
2022/09/11 02:27:13;;;;;;;3.20;1.23;;;17.30;96.90;;;17.70;64.96;98732.03;4971737;28;109425;-77
2022/09/11 02:29:39;;;;;;;2.97;1.30;;;17.30;96.90;;;17.71;64.91;98730.06;4987433;28;109485;-76
2022/09/11 02:32:09;;;;;;;2.60;1.47;;;17.30;96.90;;;17.71;64.83;98727.28;4972769;28;124183;-76
2022/09/11 02:34:39;;;;;;;4.00;1.40;;;17.30;96.90;;;17.70;64.79;98732.03;4982194;28;123912;-76
2022/09/11 02:37:33;;;;;;;3.20;1.27;;;17.30;96.90;;;17.70;64.94;98736.81;4974938;28;110448;-81
2022/09/11 02:40:37;;;;;;;1.53;1.20;;;17.30;96.90;;;17.67;64.93;98730.75;4979605;28;110450;-80
2022/09/11 02:43:32;;;;;;;4.00;1.50;;;17.30;96.90;;;17.68;64.90;98734.38;4971927;28;123082;-77
2022/09/11 02:46:07;;;;;;;1.70;1.23;;;17.30;96.90;;;17.71;64.86;98733.66;4973741;28;123906;-77
2022/09/11 02:49:06;;;;;;;1.80;1.40;;;17.30;96.90;;;17.73;64.88;98739.72;4988469;28;109008;-77
2022/09/11 02:51:55;;;;;;;1.93;1.40;;;17.30;96.90;;;17.75;64.83;98750.50;4998834;28;109331;-76
2022/09/11 02:55:00;;;;;;;2.37;1.53;;;17.40;96.90;;;17.78;64.84;98747.00;4980201;28;124559;-77
2022/09/11 02:57:36;;;;;;;1.57;1.30;;;17.40;97.00;;;17.75;64.91;98750.50;4979730;28;124140;-76
2022/09/11 03:00:06;;;;;;;1.40;1.00;;;17.40;96.90;;;17.76;65.05;98740.94;4989046;28;109632;-77
2022/09/11 03:02:38;;;;;;;3.67;1.40;;;17.40;96.90;;;17.78;64.91;98749.78;4992314;28;108677;-76
2022/09/11 03:05:05;;;;;;;1.40;1.30;;;17.40;97.00;;;17.76;64.94;98735.34;5005579;28;124056;-76
2022/09/11 03:07:32;;;;;;;1.70;1.27;;;17.40;97.00;;;17.76;65.08;98746.53;4976196;28;123988;-76
2022/09/11 03:09:59;;;;;;;2.80;1.40;;;17.40;97.30;;;17.76;65.07;98740.94;5005705;28;109179;-76
2022/09/11 03:12:26;;;;;;;1.50;1.40;;;17.40;97.00;;;17.76;65.01;98730.59;4983098;28;110207;-75
2022/09/11 03:14:52;;;;;;;1.70;1.40;;;17.40;97.00;;;17.78;65.05;98739.41;4982229;28;124143;-76
2022/09/11 03:17:19;;;;;;;4.20;1.60;;;17.40;97.00;;;17.81;64.95;98735.09;4985107;28;123829;-77
2022/09/11 03:19:46;;;;;;;3.80;1.83;;;17.40;97.00;;;17.83;64.81;98730.78;4978912;28;108404;-76
2022/09/11 03:22:13;;;;;;;2.70;1.60;;;17.40;97.00;;;17.85;65.05;98736.81;4983866;28;109027;-77
2022/09/11 03:24:40;;;;;;;1.70;1.30;;;17.40;97.00;;;17.87;65.04;98739.28;4981334;28;124720;-76
2022/09/11 03:27:06;;;;;;;1.70;1.30;;;17.40;97.00;;;17.88;65.01;98743.69;4980297;28;123844;-76
2022/09/11 03:29:33;;;;;;;4.97;1.80;;;17.50;97.10;;;17.88;65.01;98738.09;4986263;28;110088;-77
2022/09/11 03:32:00;;;;;;;2.77;1.60;;;17.50;97.10;;;17.86;65.05;98734.84;4984966;28;109881;-76
2022/09/11 03:34:27;;;;;;;2.70;1.97;;;17.40;97.10;;;17.83;65.06;98729.97;4974757;28;122698;-77
2022/09/11 03:36:53;;;;;;;2.40;1.70;;;17.40;97.10;;;17.81;65.24;98738.75;4978008;28;123870;-76
2022/09/11 03:39:20;;;;;;;3.60;1.70;;;17.40;97.10;;;17.81;65.15;98732.31;4972448;28;109086;-76
2022/09/11 03:41:46;;;;;;;4.90;1.70;;;17.50;97.20;;;17.83;65.14;98741.16;4984426;28;110463;-78
2022/09/11 03:44:13;;;;;;;2.77;1.90;;;17.40;97.20;;;17.84;65.21;98742.78;4986650;28;125271;-76
2022/09/11 03:46:39;;;;;;;2.20;1.70;;;17.50;97.20;;;17.83;65.20;98741.16;4983028;28;124031;-77
2022/09/11 03:49:06;;;;;;;3.10;2.00;;;17.40;97.20;;;17.83;65.53;98746.75;4994385;28;109326;-76
2022/09/11 03:51:34;;;;;;;3.13;2.37;;;17.40;97.30;;;17.81;65.45;98743.50;4981658;28;109209;-76
2022/09/11 03:54:01;;;;;;;2.40;1.77;;;17.40;97.60;;;17.80;65.54;98753.06;4972341;28;124129;-76
2022/09/11 03:56:27;;;;;;;3.37;2.17;;;17.40;97.30;;;17.79;65.56;98745.88;4979317;28;123786;-77
2022/09/11 03:58:56;;;;;;;3.63;2.07;;;17.40;97.40;;;17.78;65.60;98744.19;4972862;28;109136;-77
2022/09/11 04:01:23;;;;;;;4.63;2.47;;;17.40;97.40;;;17.79;65.90;98751.44;4989243;28;109403;-76
2022/09/11 04:03:49;;;;;;;3.60;2.07;;;17.40;97.50;;;17.78;65.81;98744.19;4977495;28;124068;-77
2022/09/11 04:06:16;;;;;;;4.93;2.17;;;17.40;97.50;;;17.78;65.91;98745.00;4981816;28;123411;-76
2022/09/11 04:08:42;;;;;;;2.27;2.03;;;17.40;97.50;;;17.80;65.74;98747.47;4989624;28;109245;-76
2022/09/11 04:11:10;;;;;;;2.57;2.07;;;17.40;97.50;;;17.79;65.80;98743.88;4982819;28;108786;-76
2022/09/11 04:13:39;;;;;;;3.43;2.10;;;17.40;97.50;;;17.79;65.87;98734.69;4986180;28;124080;-78
2022/09/11 04:16:10;;;;;;;3.03;2.30;;;17.40;97.60;;;17.79;65.66;98741.06;4991806;28;123826;-76
2022/09/11 04:18:38;;;;;;;5.13;2.27;;;17.40;97.50;;;17.78;65.75;98739.41;4975776;28;110161;-76
2022/09/11 04:21:08;;;;;;;3.57;2.20;;;17.40;97.50;;;17.78;65.77;98749.78;4992263;28;110104;-76
2022/09/11 04:23:36;;;;;;;4.40;2.30;;;17.40;97.50;;;17.80;65.48;98758.66;4988765;28;124215;-76
2022/09/11 04:26:13;;;;;;;3.40;2.30;;;17.40;97.60;;;17.83;65.92;98755.94;4990375;28;122945;-77
2022/09/11 04:28:39;;;;;;;4.03;2.50;;;17.40;97.60;;;17.86;65.78;98762.78;4990374;28;109369;-77
2022/09/11 04:31:06;;;;;;;2.80;2.30;;;17.50;97.60;;;17.87;65.64;98765.22;5004646;28;107863;-77
2022/09/11 04:33:38;;;;;;;3.73;2.57;;;17.50;97.50;;;17.87;65.52;98765.22;4990591;28;123534;-77
2022/09/11 04:36:12;;;;;;;3.00;2.27;;;17.50;97.50;;;17.88;65.57;98755.66;4982417;28;124286;-76
2022/09/11 04:38:39;;;;;;;2.60;2.10;;;17.50;97.50;;;17.90;65.52;98768.47;4987818;28;108214;-76
2022/09/11 04:41:07;;;;;;;3.70;2.20;;;17.50;97.50;;;17.91;65.64;98767.28;4982215;28;109000;-74
2022/09/11 04:43:37;;;;;;;5.73;2.47;;;17.50;97.50;;;17.93;65.57;98776.13;4980154;28;124196;-76
2022/09/11 04:46:15;;;;;;;2.60;2.40;;;17.50;97.40;;;17.93;65.44;98776.94;4975097;28;124210;-75
2022/09/11 04:48:45;;;;;;;3.20;2.00;;;17.50;97.40;;;17.93;65.22;98774.16;4979193;28;109031;-75
2022/09/11 04:51:25;;;;;;;2.60;2.40;;;17.50;97.40;;;17.95;65.41;98787.78;4987769;28;109086;-77
2022/09/11 04:53:59;;;;;;;2.30;2.10;;;17.60;97.40;;;17.97;65.32;98783.41;4971579;28;124429;-75
2022/09/11 04:56:29;;;;;;;3.20;2.60;;;17.60;97.40;;;18.00;65.20;98795.88;4973555;28;123794;-76
2022/09/11 04:59:12;;;;;;;4.53;2.57;;;17.60;97.70;;;18.03;65.17;98795.97;4971668;28;109279;-76
2022/09/11 05:01:38;;;;;;;4.97;2.87;;;17.60;97.30;;;18.02;65.10;98799.13;4983225;28;109325;-77
2022/09/11 05:04:07;;;;;;;2.80;2.13;;;17.60;97.30;;;18.02;65.00;98799.91;4975440;28;122299;-76
2022/09/11 05:06:36;;;;;;;4.93;3.20;;;17.60;97.30;;;18.02;65.19;98808.31;4990900;28;125168;-75
2022/09/11 05:09:06;;;;;;;6.33;2.93;;;17.60;97.30;;;18.03;65.16;98812.75;4981796;28;110251;-75
2022/09/11 05:11:33;;;;;;;4.57;2.87;;;17.60;97.30;;;18.06;64.98;98816.81;4987094;28;110529;-77
2022/09/11 05:14:00;;;;;;;5.93;2.80;;;17.60;97.30;;;18.04;64.92;98819.94;4988926;28;124057;-76
2022/09/11 05:16:29;;;;;;;3.03;2.47;;;17.60;97.30;;;18.05;65.06;98816.00;4980147;28;122976;-78
2022/09/11 05:18:56;;;;;;;4.43;2.73;;;17.60;97.20;;;18.06;64.83;98817.59;4990471;28;110019;-77
2022/09/11 05:21:24;;;;;;;2.60;2.40;;;17.70;97.30;;;18.06;65.04;98819.59;4976012;28;108949;-77
2022/09/11 05:23:54;;;;;;;5.03;2.70;;;17.70;97.30;;;18.06;64.99;98822.41;4991022;28;123198;-77
2022/09/11 05:26:25;;;;;;;3.40;3.00;;;17.70;97.30;;;18.07;64.95;98824.81;4983033;28;124060;-77
2022/09/11 05:29:06;;;;;;;3.87;3.17;;;17.70;97.30;;;18.08;64.85;98829.25;4970646;28;108917;-75
2022/09/11 05:31:32;;;;;;;2.70;2.40;;;17.70;97.20;;;18.10;65.27;98829.69;4981483;28;109053;-75
2022/09/11 05:33:59;;;;;;;5.17;3.00;;;17.70;97.20;;;18.14;64.81;98834.56;4990678;28;124086;-75
2022/09/11 05:36:27;;;;;;;3.77;2.33;;;17.70;97.20;;;18.15;64.69;98836.19;4988693;28;123903;-75
2022/09/11 05:38:54;;;;;;;5.30;2.60;;;17.70;97.20;;;18.16;64.74;98837.78;4971791;28;109202;-75
2022/09/11 05:41:20;;;;;;;3.00;2.53;;;17.70;97.10;;;18.15;64.82;98836.19;4998030;28;108210;-76
2022/09/11 05:43:47;;;;;;;2.80;2.60;;;17.80;97.20;;;18.18;64.51;98841.03;4988102;28;124828;-75
2022/09/11 05:46:18;;;;;;;5.57;2.97;;;17.80;97.10;;;18.21;64.47;98843.13;4976962;28;124555;-75
2022/09/11 05:48:45;;;;;;;4.80;2.57;;;17.80;97.10;;;18.22;64.66;98841.97;4970918;28;109374;-75
2022/09/11 05:51:21;;;;;;;3.93;2.60;;;17.80;97.00;;;18.25;64.45;98847.63;4983035;28;108715;-75
2022/09/11 05:53:57;;;;;;;4.27;2.90;;;17.80;97.00;;;18.26;64.40;98846.44;4983234;28;124228;-79
2022/09/11 05:56:24;;;;;;;8.13;2.93;;;17.90;97.00;;;18.27;64.31;98852.88;4989311;28;123918;-76
2022/09/11 05:58:52;;;;;;;6.37;2.73;;;17.80;96.90;;;18.24;64.24;98850.78;4990479;28;109380;-75
2022/09/11 06:01:21;;;;;;;3.40;2.97;;;17.80;96.90;;;18.22;64.33;98855.94;4985353;28;110263;-75
2022/09/11 06:03:49;;;;;;;5.20;2.83;;;17.80;96.90;;;18.19;64.45;98863.06;4986595;28;124142;-75
2022/09/11 06:06:18;;;;;;;4.07;2.63;;;17.80;96.90;;;18.19;64.57;98859.44;4989180;28;122705;-75
2022/09/11 06:08:46;;;;;;;7.77;3.00;;;17.80;96.90;;;18.22;64.57;98864.34;4975004;28;108319;-76
2022/09/11 06:11:15;;;;;;;3.50;3.00;;;17.90;97.00;;;18.23;64.41;98865.94;4990297;28;109018;-76
2022/09/11 06:13:45;;;;;;;4.60;2.80;;;17.80;96.90;;;18.23;64.26;98877.13;4981445;28;123958;-78
2022/09/11 06:16:17;;;;;;;3.90;2.53;;;17.80;96.90;;;18.24;64.40;98871.19;4985360;28;124348;-76
2022/09/11 06:18:47;;;;;;;3.70;3.10;;;17.80;96.90;;;18.25;64.30;98875.59;4984026;28;110551;-76
2022/09/11 06:21:18;;;;;;;3.10;2.73;;;17.90;96.90;;;18.28;64.26;98876.84;4983305;28;109016;-77
2022/09/11 06:23:50;;;;;;;5.33;3.17;;;17.90;96.90;;;18.32;64.23;98886.97;4968686;28;123587;-76
2022/09/11 06:26:20;;;;;;;3.43;3.07;;;17.90;96.90;;;18.35;64.24;98891.03;4983833;28;124048;-75
2022/09/11 06:28:47;;;;;;;3.07;2.77;;;17.90;96.90;;;18.38;64.20;98890.31;4987779;28;109050;-76
2022/09/11 06:31:18;;;;;;;7.67;3.10;;;17.90;96.80;;;18.41;64.01;98895.16;4983147;28;108987;-76
2022/09/11 06:33:45;;;;;;;5.50;3.50;;;18.00;96.90;;;18.41;64.01;98895.16;4983745;28;123940;-76
2022/09/11 06:36:18;;;;;;;7.40;3.30;;;18.00;96.90;;;18.41;64.11;98906.34;4987981;28;123956;-76
2022/09/11 06:38:46;;;;;;;7.73;3.47;;;18.00;96.80;;;18.41;64.03;98900.75;4991059;28;109166;-76
2022/09/11 06:41:14;;;;;;;3.83;3.30;;;18.00;96.80;;;18.43;64.11;98904.03;4966463;28;107521;-76
2022/09/11 06:43:42;;;;;;;4.20;2.80;;;18.00;96.80;;;18.46;64.04;98905.28;4990065;28;124086;-76
2022/09/11 06:46:18;;;;;;;6.30;3.57;;;18.00;96.80;;;18.48;63.71;98909.34;4987920;28;123861;-79
2022/09/11 06:48:47;;;;;;;3.57;2.87;;;18.00;96.80;;;18.50;63.70;98906.16;4988820;28;110196;-76
2022/09/11 06:51:17;;;;;;;3.37;3.07;;;18.10;96.80;;;18.53;63.81;98908.22;4991504;28;110117;-75
2022/09/11 06:53:46;;;;;;;3.83;3.50;;;18.10;96.80;;;18.58;63.61;98901.56;4990908;28;123538;-78
2022/09/11 06:56:16;;;;;;;3.90;3.60;;;18.10;96.80;;;18.59;63.60;98911.56;4987437;28;123824;-76
2022/09/11 06:58:44;;;;;;;5.10;3.00;;;18.10;96.70;;;18.57;63.64;98908.34;4987856;28;109218;-76
2022/09/11 07:01:16;;;;;;;4.03;3.13;;;18.20;96.70;;;18.55;63.66;98906.69;4986367;28;108901;-78
2022/09/11 07:03:53;;;;;;;4.43;3.50;;;18.20;96.70;;;18.54;63.69;98909.88;4988054;28;123760;-78
2022/09/11 07:06:24;;;;;;;5.40;3.50;;;18.10;96.70;;;18.53;63.66;98903.44;4987290;28;123789;-76
2022/09/11 07:08:55;;;;;;;3.57;3.27;;;18.10;96.70;;;18.57;63.77;98911.13;4990405;28;109313;-77
2022/09/11 07:11:22;;;;;;;6.27;3.70;;;18.20;96.80;;;18.61;63.53;98909.22;4993215;28;108967;-76
2022/09/11 07:13:48;;;;;;;4.57;3.33;;;18.20;96.70;;;18.63;63.63;98907.69;4987458;28;124397;-79
2022/09/11 07:16:15;;;;;;;4.00;2.77;;;18.20;96.70;;;18.67;63.45;98911.38;4985669;28;122726;-76
2022/09/11 07:18:44;;;;;;;3.40;2.80;;;18.30;96.70;;;18.70;63.58;98907.06;4986674;28;109233;-78
2022/09/11 07:21:13;;;;;;;5.00;3.23;;;18.30;96.70;;;18.75;63.39;98909.56;4988605;28;108736;-77
2022/09/11 07:23:40;;;;;;;4.93;3.50;;;18.30;96.60;;;18.80;63.51;98908.50;4988346;28;124727;-79
2022/09/11 07:26:11;;;;;;;3.83;3.20;;;18.30;96.60;;;18.85;63.44;98909.00;4990620;28;123796;-76
2022/09/11 07:28:38;;;;;;;3.33;3.00;;;18.40;96.60;;;18.90;63.11;98911.53;4988693;28;109161;-76
2022/09/11 07:31:17;;;;;;;4.03;3.63;;;18.40;96.60;;;18.95;63.11;98902.03;4988022;28;109139;-78
2022/09/11 07:33:46;;;;;;;5.13;3.20;;;18.50;96.60;;;18.98;63.03;98913.31;4985551;28;124695;-76
2022/09/11 07:36:19;;;;;;;5.40;3.70;;;18.50;96.50;;;19.01;62.80;98916.56;4987821;28;123794;-76
2022/09/11 07:38:47;;;;;;;4.70;4.13;;;18.50;96.40;;;19.01;62.72;98919.38;4986158;28;110348;-80
2022/09/11 07:41:17;;;;;;;6.03;3.27;;;18.50;96.30;;;18.98;62.69;98924.50;4986549;28;109734;-77
2022/09/11 07:43:47;;;;;;;5.07;3.27;;;18.50;96.30;;;18.97;62.73;98927.69;4972612;28;123924;-76
2022/09/11 07:46:14;;;;;;;6.97;3.87;;;18.50;96.20;;;18.98;62.69;98930.13;4980216;28;123702;-76
2022/09/11 07:48:44;;;;;;;5.93;3.40;;;18.50;96.20;;;19.00;62.54;98932.56;4987066;28;109155;-75
2022/09/11 07:51:14;;;;;;;5.53;3.93;;;18.50;96.10;;;18.98;62.48;98941.31;4977019;28;108871;-75
2022/09/11 07:53:45;;;;;;;4.00;3.60;;;18.50;96.10;;;18.98;62.59;98938.50;4977414;28;124710;-76
2022/09/11 07:56:19;;;;;;;4.97;4.20;;;18.60;96.00;;;19.01;62.39;98938.97;4981870;28;123615;-75
2022/09/11 07:58:46;;;;;;;5.37;3.73;;;18.60;96.00;;;19.01;62.22;98945.38;4979586;28;109267;-76
2022/09/11 08:01:17;;;;;;;4.30;3.70;;;18.60;95.90;;;19.04;62.25;98946.63;4974023;28;109021;-76
2022/09/11 08:03:43;;;;;;;4.60;3.80;;;18.60;96.00;;;19.08;62.16;98950.34;4984074;28;123961;-79
2022/09/11 08:06:17;;;;;;;3.97;3.63;;;18.60;95.90;;;19.09;62.24;98951.94;4979717;28;124273;-76
2022/09/11 08:08:43;;;;;;;5.77;4.07;;;18.70;96.00;;;19.09;62.21;98941.56;4979932;28;109198;-77
2022/09/11 08:11:15;;;;;;;7.63;3.60;;;18.60;95.90;;;19.10;62.21;98945.16;4981577;28;109249;-77
2022/09/11 08:13:41;;;;;;;6.10;3.77;;;18.60;95.90;;;19.11;62.16;98956.00;4983889;28;124293;-76
2022/09/11 08:16:08;;;;;;;5.00;3.90;;;18.60;95.90;;;19.14;62.22;98958.09;4974406;28;124157;-78
2022/09/11 08:18:35;;;;;;;4.47;3.73;;;18.70;95.90;;;19.13;61.93;98958.47;4982230;28;109211;-76
2022/09/11 08:21:08;;;;;;;7.00;4.20;;;18.70;95.80;;;19.14;62.25;98955.28;4985837;28;109097;-75
2022/09/11 08:23:37;;;;;;;5.53;3.67;;;18.70;95.80;;;19.19;62.13;98957.78;4977153;28;124993;-76
2022/09/11 08:26:08;;;;;;;4.40;3.90;;;18.70;95.80;;;19.23;61.78;98963.47;4979316;28;123759;-77
2022/09/11 08:28:35;;;;;;;7.70;4.43;;;18.80;95.80;;;19.31;61.60;98970.03;4979132;28;110089;-77
2022/09/11 08:31:04;;;;;;;7.77;4.40;;;18.80;95.70;;;19.33;61.24;98962.91;4985217;28;109101;-78
2022/09/11 08:33:32;;;;;;;7.20;4.53;;;18.80;95.50;;;19.33;61.12;98960.09;4970459;28;124236;-77
2022/09/11 08:36:04;;;;;;;4.50;3.70;;;18.80;95.40;;;19.37;61.08;98968.56;4983846;28;123858;-76
2022/09/11 08:38:32;;;;;;;5.00;4.10;;;18.90;95.40;;;19.43;61.30;98964.31;4992249;28;108883;-75
2022/09/11 08:41:32;;;;;;;4.67;3.80;;;18.90;95.40;;;19.51;60.97;98970.88;4992312;28;109032;-78
2022/09/11 08:44:10;;;;;;;5.23;3.87;;;19.00;95.40;;;19.54;60.56;98967.34;4982441;28;124139;-75
2022/09/11 08:46:42;;;;;;;10.60;4.63;;;19.10;95.30;;;19.51;60.42;98966.09;4993305;28;123989;-75
2022/09/11 08:49:18;;;;;;;7.47;4.67;;;19.00;95.00;;;19.49;60.58;98965.63;4982720;28;109151;-78
2022/09/11 08:51:47;;;;;;;5.10;4.00;;;19.00;94.90;;;19.48;60.44;98971.59;4987877;28;109039;-75
2022/09/11 08:54:33;;;;;;;4.73;4.07;;;19.00;94.90;;;19.49;60.54;98973.25;4985299;28;124202;-76
2022/09/11 08:57:32;;;;;;;5.90;3.87;;;19.10;94.90;;;19.49;60.63;98976.84;4983826;28;124217;-76
2022/09/11 09:00:27;;;;;;;8.53;4.50;;;19.10;94.80;;;19.50;60.57;98972.84;4974879;28;108296;-76
2022/09/11 09:03:29;;;;;;;5.33;4.30;;;19.10;94.80;;;19.51;60.40;98966.09;4989633;28;109299;-76
2022/09/11 09:06:20;;;;;;;5.40;4.30;;;19.10;94.90;;;19.60;60.46;98971.47;4991616;28;123816;-77
2022/09/11 09:09:00;;;;;;;4.47;3.60;;;19.20;94.90;;;19.73;60.22;98969.38;4985894;28;123845;-77
2022/09/11 09:11:56;;;;;;;6.17;4.50;;;19.30;94.80;;;19.84;59.71;98968.38;4988973;28;109451;-78
2022/09/11 09:14:50;;;;;;;8.63;4.47;;;19.30;94.80;;;19.91;58.87;98969.69;5006266;28;109193;-75
2022/09/11 09:17:48;;;;;;;7.17;4.53;;;19.40;94.30;;;19.99;58.80;98965.88;4989588;28;123567;-75
2022/09/11 09:20:21;;;;;;;5.70;3.47;;;19.50;94.20;;;20.06;58.65;98971.59;4988642;28;123153;-77
2022/09/11 09:23:01;;;;;;;7.17;4.17;;;19.50;94.00;;;20.15;58.40;98969.38;4986885;28;110215;-76
2022/09/11 09:25:29;;;;;;;7.17;4.27;;;19.60;93.90;;;20.28;57.86;98968.03;4988344;28;109832;-82
2022/09/11 09:28:07;;;;;;;4.10;3.20;;;19.70;93.90;;;20.37;57.22;98973.38;4975839;28;123414;-78
2022/09/11 09:30:49;;;;;;;4.40;4.00;;;19.80;93.50;;;20.43;56.84;98979.50;4983619;28;123594;-78
2022/09/11 09:33:38;;;;;;;4.87;4.00;;;19.90;93.20;;;20.49;56.72;98978.00;4963500;28;108318;-79
2022/09/11 09:36:36;;;;;;;3.47;3.17;;;20.00;93.10;;;20.56;56.20;98969.72;5007661;28;109551;-77
2022/09/11 09:39:13;;;;;;;4.20;3.30;;;20.00;92.70;;;20.63;55.46;98975.47;4967237;28;123693;-78
2022/09/11 09:41:49;;;;;;;7.00;3.33;;;20.10;92.40;;;20.69;55.34;98973.97;4969455;28;125616;-76
2022/09/11 09:45:20;;;;;;;4.60;4.07;;;20.10;92.20;;;20.68;55.09;98977.13;4991046;28;107185;-88
2022/09/11 09:47:47;;;;;;;4.10;3.67;;;20.20;92.00;;;20.72;55.48;98983.63;4984816;28;109241;-77
2022/09/11 09:50:28;;;;;;;3.57;3.27;;;20.20;92.10;;;20.74;55.33;98984.88;4978773;28;123475;-77
2022/09/11 09:53:22;;;;;;;4.23;3.00;;;20.30;92.30;;;20.78;55.62;98975.69;4980331;28;123349;-78
2022/09/11 09:55:53;;;;;;;4.53;3.70;;;20.30;92.20;;;20.85;55.83;98979.44;4978906;28;109418;-80
2022/09/11 09:58:30;;;;;;;5.30;3.70;;;20.40;92.30;;;20.90;55.36;98978.28;4985540;28;108902;-77
2022/09/11 10:00:57;;;;;;;3.63;3.17;;;20.40;92.20;;;20.93;55.37;98974.75;4970683;28;124365;-78
2022/09/11 10:03:25;;;;;;;5.00;4.10;;;20.40;92.10;;;20.93;55.05;98975.56;4983553;28;123467;-78
2022/09/11 10:05:54;;;;;;;4.37;3.97;;;20.40;92.00;;;20.90;54.71;98984.75;4979843;28;109242;-78
2022/09/11 10:08:35;;;;;;;4.77;3.80;;;20.50;91.80;;;20.88;54.78;98975.06;4988761;28;108875;-77
2022/09/11 10:11:04;;;;;;;6.37;3.60;;;20.50;91.60;;;20.89;54.32;98976.69;4985397;28;123255;-75
2022/09/11 10:13:36;;;;;;;5.10;3.67;;;20.50;91.50;;;20.91;54.00;98982.72;4984787;28;123907;-76
2022/09/11 10:16:18;;;;;;;3.53;3.23;;;20.60;91.50;;;20.93;53.81;98981.16;4984262;28;110163;-79
2022/09/11 10:18:46;;;;;;;4.50;3.70;;;20.50;91.20;;;20.97;54.10;98972.78;4981219;28;109629;-77
2022/09/11 10:21:17;;;;;;;5.10;3.90;;;20.50;91.20;;;21.02;53.90;98974.47;4977614;28;124234;-77
2022/09/11 10:23:55;;;;;;;4.20;3.73;;;20.60;91.10;;;21.07;54.03;98976.97;4972923;28;123153;-78
2022/09/11 10:26:37;;;;;;;4.30;3.67;;;20.60;91.10;;;21.09;54.33;98972.59;4989215;28;108179;-77
2022/09/11 10:29:14;;;;;;;4.60;3.40;;;20.60;91.20;;;21.18;53.81;98978.72;4984934;28;109461;-76
2022/09/11 10:31:49;;;;;;;3.97;3.57;;;20.70;91.30;;;21.32;53.87;98980.91;4971473;28;122962;-76
2022/09/11 10:34:18;;;;;;;3.97;3.57;;;20.80;91.40;;;21.41;53.76;98975.03;4981159;28;124536;-76
2022/09/11 10:37:02;;;;;;;5.43;4.03;;;20.80;91.20;;;21.42;53.50;98973.88;4985318;28;109245;-76
2022/09/11 10:39:31;;;;;;;6.17;4.83;;;20.90;91.10;;;21.40;54.05;98971.44;4984963;28;109241;-77